Time;durP1;ratioP1;P1;durP2;ratioP2;P2;SDS_P1;SDS_P2;PMS_P1;PMS_P2;Temp;Humidity;BMP_temperature;BMP_pressure;BME280_temperature;BME280_humidity;BME280_pressure;Samples;Min_cycle;Max_cycle;Signal;HPM_P1;HPM_P2
2023/08/28 00:03:20;;;;;;;18.90;14.70;;;;;;;17.48;100.00;99806.24;215231;1288;141924;-90
2023/08/28 00:08:21;;;;;;;23.00;16.10;;;;;;;17.48;100.00;99817.46;215912;1285;139014;-91
2023/08/28 00:13:22;;;;;;;19.30;14.00;;;;;;;17.47;100.00;99836.81;215545;1288;141226;-91
2023/08/28 00:18:23;;;;;;;21.30;15.50;;;;;;;17.43;100.00;99847.96;215894;1285;139841;-91
2023/08/28 00:23:24;;;;;;;20.90;15.10;;;;;;;17.39;100.00;99844.70;215443;1286;142698;-92
2023/08/28 00:28:24;;;;;;;19.40;14.40;;;;;;;17.39;100.00;99839.89;215988;1286;139892;-91
2023/08/28 00:33:25;;;;;;;21.50;15.80;;;;;;;17.37;100.00;99852.32;215652;1285;141326;-92
2023/08/28 00:38:26;;;;;;;23.70;15.20;;;;;;;17.34;100.00;99862.80;215882;1285;139810;-92
2023/08/28 00:43:27;;;;;;;24.60;14.10;;;;;;;17.29;100.00;99868.96;216000;1287;140590;-93
2023/08/28 00:48:29;;;;;;;18.50;13.10;;;;;;;17.24;100.00;99863.66;216203;1287;139040;-94
2023/08/28 00:53:30;;;;;;;19.00;12.60;;;;;;;17.22;100.00;99866.91;216457;1286;142203;-94
2023/08/28 00:58:33;;;;;;;16.70;13.00;;;;;;;17.19;100.00;99870.48;216843;1285;139308;-93
2023/08/28 01:03:36;;;;;;;17.00;13.00;;;;;;;17.18;100.00;99892.52;216409;1287;139692;-91
2023/08/28 01:08:54;;;;;;;23.70;14.60;;;;;;;17.15;100.00;99878.20;216563;1284;139229;-94
2023/08/28 01:14:08;;;;;;;18.50;13.60;;;;;;;17.13;100.00;99889.38;215733;1287;140887;-91
2023/08/28 01:19:22;;;;;;;18.80;13.70;;;;;;;17.12;100.00;99895.28;217022;1286;141577;-93
2023/08/28 01:24:25;;;;;;;17.50;12.90;;;;;;;17.11;100.00;99907.61;216555;1284;139120;-92
2023/08/28 01:29:47;;;;;;;21.80;13.10;;;;;;;17.11;100.00;99898.25;215664;1285;141078;-93
2023/08/28 01:34:51;;;;;;;18.50;13.20;;;;;;;17.07;100.00;99902.14;216307;1288;139136;-94
2023/08/28 01:39:57;;;;;;;21.30;13.00;;;;;;;17.03;100.00;99895.03;215975;1285;140967;-94
2023/08/28 01:45:00;;;;;;;17.10;12.60;;;;;;;17.01;100.00;99893.33;216534;1285;139283;-95
2023/08/28 01:50:02;;;;;;;18.00;11.70;;;;;;;16.98;100.00;99873.45;215770;1290;140677;-94
2023/08/28 01:55:03;;;;;;;17.10;10.80;;;;;;;16.97;100.00;99882.77;216552;1287;97718;-94
2023/08/28 02:00:05;;;;;;;17.90;11.80;;;;;;;16.95;100.00;99886.16;215849;1287;142674;-94
2023/08/28 02:05:06;;;;;;;15.80;11.00;;;;;;;16.92;100.00;99873.67;216353;1285;139655;-93
2023/08/28 02:10:07;;;;;;;16.80;10.40;;;;;;;16.89;100.00;99859.84;216059;1285;140772;-94
2023/08/28 02:15:09;;;;;;;16.00;11.10;;;;;;;16.86;100.00;99878.73;216381;1284;139001;-93
2023/08/28 02:25:34;;;;;;;16.80;12.40;;;;;;;16.79;100.00;99915.98;216558;1285;102669;-91
2023/08/28 02:30:37;;;;;;;16.70;10.70;;;;;;;16.74;100.00;99920.62;215660;1284;140542;-92
2023/08/28 02:35:38;;;;;;;16.80;12.10;;;;;;;16.71;100.00;99915.14;216625;1286;139046;-91
2023/08/28 02:40:40;;;;;;;18.80;11.60;;;;;;;16.68;100.00;99918.37;216029;1286;141110;-91
2023/08/28 02:45:43;;;;;;;22.50;11.60;;;;;;;16.66;100.00;99905.95;216836;1285;139079;-90
2023/08/28 02:50:49;;;;;;;13.80;10.00;;;;;;;16.63;100.00;99897.05;215961;1286;140849;-90
2023/08/28 02:56:17;;;;;;;16.20;11.40;;;;;;;16.59;100.00;99889.44;216575;1286;139037;-91
2023/08/28 03:01:19;;;;;;;15.10;11.60;;;;;;;16.53;100.00;99874.02;216001;1286;142046;-91
2023/08/28 03:06:21;;;;;;;16.90;12.80;;;;;;;16.51;100.00;99879.93;216373;1284;138930;-91
2023/08/28 03:11:28;;;;;;;17.40;11.20;;;;;;;16.48;100.00;99885.00;216023;1286;140341;-92
2023/08/28 03:16:29;;;;;;;17.20;10.90;;;;;;;16.45;100.00;99891.09;216292;1286;139055;-92
2023/08/28 03:21:33;;;;;;;17.40;12.10;;;;;;;16.40;100.00;99890.64;215922;1286;140967;-92
2023/08/28 03:26:34;;;;;;;16.50;11.20;;;;;;;16.34;100.00;99895.42;216517;1288;139506;-92
2023/08/28 03:31:44;;;;;;;20.80;12.90;;;;;;;16.33;100.00;99915.36;216456;1286;141060;-92
2023/08/28 03:36:45;;;;;;;17.30;12.30;;;;;;;16.29;100.00;99919.64;217784;1287;138747;-92
2023/08/28 03:41:50;;;;;;;17.20;12.20;;;;;;;16.25;100.00;99915.98;215671;1285;141304;-92
2023/08/28 03:53:15;;;;;;;19.20;11.80;;;;;;;16.17;100.00;99935.89;215844;1285;139476;-91
2023/08/28 03:58:22;;;;;;;20.70;13.70;;;;;;;16.15;100.00;99947.28;216322;1286;139015;-91
2023/08/28 04:03:25;;;;;;;15.40;11.10;;;;;;;16.12;100.00;99940.13;215938;1286;140593;-90
2023/08/28 04:08:28;;;;;;;19.20;11.50;;;;;;;16.09;100.00;99942.24;216058;1286;139944;-91
2023/08/28 04:13:31;;;;;;;14.50;11.60;;;;;;;16.06;100.00;99951.36;215608;1288;140316;-91
2023/08/28 04:18:31;;;;;;;19.00;13.20;;;;;;;16.03;100.00;99954.10;216069;1285;139088;-90
2023/08/28 04:23:34;;;;;;;16.10;11.80;;;;;;;16.00;100.00;99956.38;215707;1286;140940;-90
2023/08/28 04:28:36;;;;;;;20.90;14.80;;;;;;;16.00;100.00;99959.32;217254;1286;139160;-91
2023/08/28 04:33:47;;;;;;;21.70;12.60;;;;;;;16.00;100.00;99955.89;216157;1285;140626;-93
2023/08/28 04:38:53;;;;;;;21.90;13.00;;;;;;;15.98;100.00;99952.44;216423;1285;139064;-91
2023/08/28 04:44:02;;;;;;;16.80;12.40;;;;;;;15.98;100.00;99954.02;215569;1285;140679;-91
2023/08/28 04:49:23;;;;;;;19.40;14.00;;;;;;;16.00;100.00;99955.65;216050;1286;140541;-89
2023/08/28 04:54:24;;;;;;;18.20;13.00;;;;;;;16.00;100.00;99958.83;216434;1285;138823;-90
2023/08/28 04:59:26;;;;;;;19.30;13.00;;;;;;;16.01;100.00;99960.56;215607;1285;140627;-91
2023/08/28 05:04:27;;;;;;;20.70;13.80;;;;;;;16.05;100.00;99964.61;215908;1286;139163;-89
2023/08/28 05:09:28;;;;;;;20.20;14.30;;;;;;;16.10;100.00;99967.85;216567;1285;141622;-90
2023/08/28 05:14:28;;;;;;;19.30;14.10;;;;;;;16.13;100.00;99970.48;215942;1286;139169;-90
2023/08/28 05:19:49;;;;;;;20.60;14.60;;;;;;;16.20;100.00;99974.26;215569;1286;141243;-89
2023/08/28 05:24:57;;;;;;;23.50;13.70;;;;;;;16.25;100.00;99985.58;219040;1285;96400;-88
2023/08/28 05:30:01;;;;;;;22.00;13.20;;;;;;;16.32;100.00;99982.09;216571;1288;141919;-91
2023/08/28 05:35:05;;;;;;;19.50;13.00;;;;;;;16.40;100.00;99983.23;216243;1286;140245;-89
2023/08/28 05:40:14;;;;;;;16.80;13.30;;;;;;;16.46;100.00;99988.13;215874;1286;141164;-89
2023/08/28 05:45:15;;;;;;;16.40;12.50;;;;;;;16.55;100.00;99992.23;216026;1288;139501;-89
2023/08/28 05:50:28;;;;;;;19.80;13.00;;;;;;;16.67;100.00;99997.63;215530;1286;140485;-90
2023/08/28 05:55:29;;;;;;;18.90;13.20;;;;;;;16.78;100.00;99996.37;216261;1286;106531;-88
2023/08/28 06:00:33;;;;;;;15.00;12.10;;;;;;;16.83;100.00;99998.23;215400;1286;140991;-87
2023/08/28 06:05:34;;;;;;;16.80;12.10;;;;;;;16.91;100.00;99999.34;216147;1285;139072;-88
2023/08/28 06:10:40;;;;;;;17.80;12.10;;;;;;;16.98;100.00;99992.45;215512;1286;140999;-89
2023/08/28 06:15:41;;;;;;;14.50;10.00;;;;;;;17.02;100.00;100003.14;216260;1286;139040;-89
2023/08/28 06:20:44;;;;;;;16.60;10.70;;;;;;;17.09;100.00;100006.64;215803;1285;140245;-89
2023/08/28 06:26:08;;;;;;;13.30;9.00;;;;;;;17.19;100.00;100010.46;216232;1285;110981;-89
2023/08/28 06:31:43;;;;;;;12.50;9.40;;;;;;;17.29;100.00;100009.85;216614;1285;141074;-90
2023/08/28 06:36:53;;;;;;;15.00;9.90;;;;;;;17.43;100.00;99998.58;216048;1286;138886;-89
2023/08/28 06:42:00;;;;;;;13.30;9.30;;;;;;;17.57;100.00;100005.33;215592;1288;140533;-91
2023/08/28 06:47:01;;;;;;;14.10;8.00;;;;;;;17.64;100.00;100008.10;216002;1286;139230;-90
2023/08/28 06:52:28;;;;;;;10.90;7.80;;;;;;;17.70;100.00;100016.77;215470;1285;142275;-91
2023/08/28 06:57:28;;;;;;;11.60;6.70;;;;;;;17.79;100.00;100014.71;216181;1286;139058;-91
2023/08/28 07:02:32;;;;;;;13.10;6.90;;;;;;;17.88;100.00;100021.10;215702;1285;140166;-91
2023/08/28 07:07:48;;;;;;;13.00;7.40;;;;;;;18.01;100.00;100030.80;216232;1288;98523;-92
2023/08/28 07:12:51;;;;;;;11.00;6.10;;;;;;;18.08;100.00;100025.61;216011;1286;143785;-90
2023/08/28 07:17:51;;;;;;;11.60;6.40;;;;;;;18.15;100.00;100023.52;216323;1286;137964;-90
2023/08/28 07:22:53;;;;;;;10.00;5.40;;;;;;;18.24;100.00;100024.32;215355;1285;141756;-89
2023/08/28 07:27:54;;;;;;;11.90;4.70;;;;;;;18.34;100.00;100029.40;216241;1286;139152;-90
2023/08/28 07:32:56;;;;;;;10.30;4.50;;;;;;;18.44;100.00;100031.05;215282;1286;140442;-90
2023/08/28 07:38:16;;;;;;;7.20;3.90;;;;;;;18.54;100.00;100035.86;216200;1286;97842;-90
2023/08/28 07:43:17;;;;;;;6.60;3.80;;;;;;;18.58;100.00;100040.37;215836;1288;140527;-88
2023/08/28 07:48:18;;;;;;;8.40;3.70;;;;;;;18.57;100.00;100037.70;215893;1286;138894;-89
2023/08/28 07:53:21;;;;;;;7.60;4.00;;;;;;;18.50;100.00;100040.13;215705;1287;140358;-92
2023/08/28 07:58:23;;;;;;;9.60;4.70;;;;;;;18.49;100.00;100046.27;216275;1286;139796;-88
2023/08/28 08:03:37;;;;;;;9.90;5.00;;;;;;;18.54;100.00;100051.95;215599;1288;140312;-89
2023/08/28 08:08:37;;;;;;;7.40;3.90;;;;;;;18.58;100.00;100049.67;216359;1286;138985;-88
2023/08/28 08:13:38;;;;;;;8.10;3.60;;;;;;;18.67;100.00;100055.48;215412;1286;144530;-90
2023/08/28 08:18:44;;;;;;;8.70;3.80;;;;;;;18.69;100.00;100063.30;215808;1286;138849;-89
2023/08/28 08:23:45;;;;;;;7.50;3.60;;;;;;;18.78;100.00;100070.14;215462;1286;145105;-87
2023/08/28 08:28:46;;;;;;;6.30;3.20;;;;;;;18.84;100.00;100071.31;215863;1288;139084;-90
2023/08/28 08:33:56;;;;;;;5.90;3.10;;;;;;;18.90;100.00;100065.48;215408;1288;140476;-88
2023/08/28 08:38:59;;;;;;;6.20;3.00;;;;;;;19.02;100.00;100065.57;216093;1285;139036;-87
2023/08/28 08:44:00;;;;;;;6.90;2.80;;;;;;;19.12;100.00;100066.53;215532;1286;140887;-87
2023/08/28 08:49:05;;;;;;;6.20;2.90;;;;;;;19.25;100.00;100074.21;215546;1288;140352;-89
2023/08/28 08:54:12;;;;;;;6.10;2.30;;;;;;;19.40;100.00;100076.26;215867;1288;139663;-88
2023/08/28 08:59:19;;;;;;;5.30;2.30;;;;;;;19.51;98.94;100077.41;215391;1288;140712;-89
2023/08/28 09:04:19;;;;;;;4.50;2.30;;;;;;;19.67;100.00;100082.10;216166;1288;139788;-87
2023/08/28 09:09:25;;;;;;;5.00;2.30;;;;;;;19.87;98.01;100080.98;215425;1288;140087;-88
2023/08/28 09:14:27;;;;;;;6.20;2.60;;;;;;;20.00;97.20;100085.90;216281;1288;139112;-88
2023/08/28 09:19:30;;;;;;;8.00;2.70;;;;;;;20.10;98.67;100095.50;215472;1287;140649;-90
2023/08/28 09:24:31;;;;;;;4.70;2.40;;;;;;;20.19;96.39;100100.54;215977;1285;138803;-88
2023/08/28 09:35:38;;;;;;;5.80;2.90;;;;;;;20.13;92.82;100090.85;215218;1292;106364;-88
2023/08/28 09:40:40;;;;;;;7.90;3.10;;;;;;;20.17;93.36;100076.44;214015;1290;141137;-89
2023/08/28 09:45:43;;;;;;;4.80;2.60;;;;;;;20.21;94.95;100078.93;214634;1288;139274;-92
2023/08/28 09:50:50;;;;;;;5.90;2.60;;;;;;;20.25;91.98;100078.23;214144;1288;140966;-89
2023/08/28 09:55:53;;;;;;;6.40;2.90;;;;;;;20.23;91.55;100074.15;214862;1291;99377;-90
2023/08/28 10:00:57;;;;;;;5.90;2.90;;;;;;;20.22;91.86;100079.70;214262;1288;140030;-90
2023/08/28 10:06:00;;;;;;;6.60;3.10;;;;;;;20.17;90.71;100076.65;214407;1295;139784;-90
2023/08/28 10:11:01;;;;;;;5.90;2.40;;;;;;;20.17;92.08;100077.16;215150;1288;140325;-90
2023/08/28 10:16:13;;;;;;;7.80;2.90;;;;;;;20.23;92.55;100090.51;214607;1288;139275;-89
2023/08/28 10:21:16;;;;;;;6.10;3.10;;;;;;;20.15;91.56;100092.59;214261;1288;141196;-91
2023/08/28 10:26:17;;;;;;;7.70;3.30;;;;;;;20.12;93.39;100089.77;214859;1295;97978;-89
2023/08/28 10:31:19;;;;;;;7.30;3.20;;;;;;;20.21;93.87;100074.52;214054;1289;139740;-91
2023/08/28 10:36:20;;;;;;;6.00;3.10;;;;;;;20.28;93.70;100060.24;214341;1289;139090;-91
2023/08/28 10:41:21;;;;;;;9.50;2.90;;;;;;;20.24;90.84;100059.66;213957;1291;140572;-90
2023/08/28 10:46:23;;;;;;;8.30;3.30;;;;;;;20.12;89.91;100066.62;214629;1290;139220;-90
2023/08/28 10:51:36;;;;;;;11.60;3.30;;;;;;;19.98;88.47;100086.29;214423;1286;142317;-90
2023/08/28 10:56:38;;;;;;;6.90;2.70;;;;;;;19.98;90.34;100079.81;214482;1288;710186;-90
2023/08/28 11:02:00;;;;;;;6.20;2.90;;;;;;;20.06;89.51;100080.38;215205;1287;140043;-89
2023/08/28 11:07:05;;;;;;;6.20;2.90;;;;;;;19.99;89.80;100077.80;215947;1300;138500;-91
2023/08/28 11:12:10;;;;;;;6.20;3.10;;;;;;;20.00;89.02;100078.15;215509;1289;141572;-90
2023/08/28 11:17:11;;;;;;;4.30;2.30;;;;;;;19.91;87.80;100081.95;216091;1291;139099;-91
2023/08/28 11:22:12;;;;;;;4.00;2.20;;;;;;;19.86;87.71;100069.92;216585;1287;140801;-91
2023/08/28 11:28:04;;;;;;;6.10;3.00;;;;;;;19.90;88.17;100065.73;216107;1286;139596;-89
2023/08/28 11:33:05;;;;;;;4.50;2.00;;;;;;;20.02;87.63;100086.23;215005;1289;141161;-90
2023/08/28 11:38:05;;;;;;;5.00;2.10;;;;;;;19.98;85.48;100083.40;215882;1289;97907;-89
2023/08/28 11:43:06;;;;;;;2.50;1.50;;;;;;;19.88;85.02;100057.09;216105;1285;140922;-90
2023/08/28 11:48:07;;;;;;;6.80;2.20;;;;;;;19.86;87.45;100017.51;215680;1286;138635;-89
2023/08/28 11:53:07;;;;;;;7.00;1.60;;;;;;;20.03;88.06;100003.13;215477;1286;140699;-89
2023/08/28 11:58:08;;;;;;;4.60;2.20;;;;;;;20.12;87.58;100027.55;216136;1286;138675;-90
2023/08/28 12:03:17;;;;;;;5.80;2.10;;;;;;;20.23;86.40;100052.03;215693;1287;139358;-90
2023/08/28 12:08:17;;;;;;;5.40;2.00;;;;;;;20.31;86.50;100059.48;216135;1288;106120;-89
2023/08/28 12:13:21;;;;;;;3.50;1.90;;;;;;;20.37;86.29;100049.88;215321;1287;139920;-90
2023/08/28 12:18:21;;;;;;;6.20;2.10;;;;;;;20.31;85.73;100044.73;216119;1286;139631;-90
2023/08/28 12:23:22;;;;;;;4.90;1.50;;;;;;;20.26;86.99;100042.09;215316;1290;141078;-90
2023/08/28 12:28:24;;;;;;;3.20;1.90;;;;;;;20.13;87.13;100043.98;216478;1285;139323;-89
2023/08/28 12:33:25;;;;;;;5.10;1.90;;;;;;;20.10;86.47;100080.40;216167;1286;141494;-89
2023/08/28 12:38:28;;;;;;;5.80;2.50;;;;;;;20.00;87.79;100096.67;215992;1286;138566;-87
2023/08/28 12:43:35;;;;;;;5.80;2.90;;;;;;;19.89;88.64;100108.37;215487;1288;140338;-89
2023/08/28 12:48:35;;;;;;;5.40;2.60;;;;;;;19.66;89.34;100113.16;216017;1288;137554;-91
2023/08/28 12:53:36;;;;;;;5.80;2.40;;;;;;;19.54;90.54;100106.17;215484;1289;140054;-90
2023/08/28 12:58:36;;;;;;;5.00;2.30;;;;;;;19.48;90.57;100097.55;215961;1286;138806;-90
2023/08/28 13:03:37;;;;;;;6.30;2.90;;;;;;;19.41;91.80;100099.59;215272;1288;140268;-90
2023/08/28 13:08:37;;;;;;;7.30;3.00;;;;;;;19.24;90.79;100103.83;216728;1286;139236;-91
2023/08/28 13:13:38;;;;;;;6.50;3.20;;;;;;;19.10;91.65;100091.23;215993;1286;141518;-90
2023/08/28 13:18:39;;;;;;;10.80;3.60;;;;;;;19.05;92.07;100093.69;216183;1285;138694;-92
2023/08/28 13:23:39;;;;;;;7.00;3.50;;;;;;;19.00;93.44;100098.77;215556;1286;140656;-90
2023/08/28 13:28:41;;;;;;;8.60;3.50;;;;;;;19.03;93.05;100085.54;216255;1285;138809;-91
2023/08/28 13:33:43;;;;;;;5.90;3.00;;;;;;;19.02;92.87;100087.23;215470;1285;140624;-91
2023/08/28 13:38:44;;;;;;;7.80;3.90;;;;;;;19.00;93.16;100097.56;216200;1285;139918;-93
2023/08/28 13:43:44;;;;;;;6.30;3.10;;;;;;;18.95;93.01;100114.05;215819;1286;140919;-92
2023/08/28 13:48:45;;;;;;;6.10;3.70;;;;;;;18.86;92.92;100102.44;216048;1285;139256;-91
2023/08/28 13:53:46;;;;;;;7.70;4.00;;;;;;;18.77;93.25;100091.67;215677;1285;140345;-91
2023/08/28 13:58:50;;;;;;;6.80;3.20;;;;;;;18.69;93.17;100076.52;216081;1288;139320;-91
2023/08/28 14:03:51;;;;;;;7.70;4.10;;;;;;;18.59;93.78;100068.94;215511;1285;140332;-91
2023/08/28 14:08:51;;;;;;;6.50;3.30;;;;;;;18.51;94.70;100041.83;216438;1289;138905;-90
2023/08/28 14:13:52;;;;;;;6.90;4.00;;;;;;;18.47;95.41;100029.52;216452;1288;139834;-91
2023/08/28 14:18:52;;;;;;;7.50;3.80;;;;;;;18.46;95.70;100033.15;216549;1285;138994;-90
2023/08/28 14:23:52;;;;;;;8.00;3.60;;;;;;;18.40;96.11;100028.35;215911;1286;141788;-91
2023/08/28 14:28:53;;;;;;;6.10;3.80;;;;;;;18.38;96.01;100027.70;216364;1286;138723;-91
2023/08/28 14:33:54;;;;;;;8.80;4.00;;;;;;;18.35;95.68;100042.66;215694;1285;141708;-90
2023/08/28 14:38:54;;;;;;;7.40;3.90;;;;;;;18.31;95.83;100025.72;216758;1285;138205;-90
2023/08/28 14:43:57;;;;;;;9.50;4.00;;;;;;;18.28;96.23;100028.82;215463;1285;140694;-91
2023/08/28 14:48:58;;;;;;;6.80;4.10;;;;;;;18.24;96.72;100038.80;216156;1285;138522;-91
2023/08/28 14:54:00;;;;;;;6.20;3.30;;;;;;;18.17;97.72;100029.81;215472;1286;141141;-90
2023/08/28 14:59:01;;;;;;;6.90;4.20;;;;;;;18.13;97.75;100043.84;215833;1285;141436;-87
2023/08/28 15:04:02;;;;;;;7.80;4.40;;;;;;;18.10;98.14;100062.16;216118;1286;140838;-90
2023/08/28 15:09:03;;;;;;;9.90;5.70;;;;;;;18.05;98.34;100085.50;215303;1286;141206;-91
2023/08/28 15:14:03;;;;;;;8.70;4.10;;;;;;;17.97;98.97;100086.17;216136;1286;97732;-90
2023/08/28 15:19:04;;;;;;;5.00;3.30;;;;;;;17.92;99.81;100080.18;215641;1285;140689;-91
2023/08/28 15:24:05;;;;;;;7.90;4.40;;;;;;;17.89;99.95;100087.26;216037;1285;139260;-88
2023/08/28 15:29:05;;;;;;;8.30;4.20;;;;;;;17.87;99.95;100113.81;215787;1285;164198;-88
2023/08/28 15:34:06;;;;;;;8.60;5.20;;;;;;;17.82;100.00;100128.55;215850;1285;139173;-88
2023/08/28 15:39:08;;;;;;;9.70;5.10;;;;;;;17.73;100.00;100127.64;215536;1286;141744;-89
2023/08/28 15:44:09;;;;;;;9.50;6.00;;;;;;;17.63;100.00;100127.55;216014;1285;97866;-89
2023/08/28 15:49:10;;;;;;;11.10;5.60;;;;;;;17.56;100.00;100116.98;215135;1286;141225;-89
2023/08/28 15:54:10;;;;;;;11.90;7.50;;;;;;;17.50;100.00;100105.98;215901;1289;138921;-90
2023/08/28 15:59:11;;;;;;;12.80;6.90;;;;;;;17.44;100.00;100121.45;215405;1288;140720;-90
2023/08/28 16:04:11;;;;;;;13.40;7.00;;;;;;;17.38;100.00;100114.48;215876;1286;139016;-91
2023/08/28 16:09:12;;;;;;;10.50;6.70;;;;;;;17.29;100.00;100121.50;215909;1288;141061;-91
2023/08/28 16:14:15;;;;;;;12.20;7.20;;;;;;;17.21;100.00;100114.52;215922;1286;99224;-89
2023/08/28 16:19:18;;;;;;;17.00;7.60;;;;;;;17.15;100.00;100110.36;215355;1287;140636;-86
2023/08/28 16:24:18;;;;;;;9.50;4.10;;;;;;;17.06;100.00;100107.59;215729;1290;139219;-87
2023/08/28 16:29:19;;;;;;;5.90;2.50;;;;;;;16.91;100.00;100115.68;215160;1288;140862;-88
2023/08/28 16:34:20;;;;;;;4.40;2.20;;;;;;;16.77;100.00;100129.95;216042;1286;139389;-87
2023/08/28 16:39:21;;;;;;;3.90;2.30;;;;;;;16.64;100.00;100122.33;215368;1286;141302;-88
2023/08/28 16:44:21;;;;;;;4.70;2.70;;;;;;;16.52;100.00;100110.80;215954;1287;98021;-86
2023/08/28 16:49:22;;;;;;;4.70;2.60;;;;;;;16.41;100.00;100082.17;215440;1286;140083;-87
2023/08/28 16:54:34;;;;;;;7.50;2.80;;;;;;;16.29;100.00;100073.72;215895;1286;139622;-87
2023/08/28 16:59:38;;;;;;;5.30;2.70;;;;;;;16.20;100.00;100082.05;216163;1289;140344;-87
2023/08/28 17:04:41;;;;;;;5.50;3.30;;;;;;;16.09;100.00;100080.66;216861;1287;138961;-88
2023/08/28 17:09:41;;;;;;;5.90;2.30;;;;;;;15.99;100.00;100074.56;216511;1285;140372;-87
2023/08/28 17:14:42;;;;;;;4.20;1.90;;;;;;;15.91;100.00;100063.12;216211;1286;139079;-88
2023/08/28 17:19:43;;;;;;;5.00;1.90;;;;;;;15.83;100.00;100054.36;214965;1286;140646;-88
2023/08/28 17:24:46;;;;;;;4.20;2.00;;;;;;;15.75;100.00;100044.02;214924;1285;139427;-88
2023/08/28 17:29:47;;;;;;;4.10;1.70;;;;;;;15.66;100.00;100040.84;214378;1285;140970;-88
2023/08/28 17:34:48;;;;;;;3.60;2.00;;;;;;;15.56;100.00;100032.36;214468;1289;138881;-88
2023/08/28 17:39:49;;;;;;;6.10;2.10;;;;;;;15.53;100.00;100046.44;213855;1287;139957;-89
2023/08/28 17:44:50;;;;;;;5.00;2.40;;;;;;;15.50;100.00;100050.44;214445;1289;139217;-88
2023/08/28 17:49:53;;;;;;;5.00;2.40;;;;;;;15.46;100.00;100064.84;214504;1289;144591;-87
2023/08/28 17:54:58;;;;;;;10.90;4.00;;;;;;;15.39;100.00;100078.26;214346;1288;141004;-88
2023/08/28 18:00:01;;;;;;;6.10;2.90;;;;;;;15.31;100.00;100081.05;213765;1288;141420;-88
2023/08/28 18:05:01;;;;;;;5.10;2.80;;;;;;;15.24;100.00;100080.89;214194;1288;139660;-88
2023/08/28 18:10:04;;;;;;;9.50;4.60;;;;;;;15.19;100.00;100064.33;214269;1285;140210;-89
2023/08/28 18:15:06;;;;;;;7.80;4.10;;;;;;;15.18;100.00;100089.67;214255;1290;139547;-88
2023/08/28 18:20:08;;;;;;;6.50;3.70;;;;;;;15.16;100.00;100117.58;213948;1286;139557;-87
2023/08/28 18:25:08;;;;;;;8.90;4.00;;;;;;;15.14;100.00;100163.48;214282;1288;139258;-88
2023/08/28 18:30:09;;;;;;;9.30;4.20;;;;;;;15.06;100.00;100182.73;213373;1286;140625;-89
2023/08/28 18:35:10;;;;;;;8.70;3.80;;;;;;;15.04;100.00;100171.97;214397;1290;139513;-89
2023/08/28 18:40:15;;;;;;;6.90;3.80;;;;;;;15.04;100.00;100161.60;214240;1286;141222;-90
2023/08/28 18:45:16;;;;;;;6.70;4.30;;;;;;;15.02;100.00;100137.40;214777;1291;139691;-89
2023/08/28 18:50:18;;;;;;;9.30;4.40;;;;;;;15.02;100.00;100126.70;214609;1287;140526;-90
2023/08/28 18:55:19;;;;;;;10.60;5.70;;;;;;;15.03;100.00;100123.52;214555;1286;139564;-90
2023/08/28 19:00:23;;;;;;;9.30;5.30;;;;;;;15.02;100.00;100108.41;214115;1288;143836;-92
2023/08/28 19:05:27;;;;;;;14.60;7.60;;;;;;;15.02;100.00;100097.09;214556;1288;139503;-92
2023/08/28 19:10:28;;;;;;;10.80;6.90;;;;;;;15.03;100.00;100065.00;213854;1288;140757;-93
2023/08/28 19:15:38;;;;;;;11.70;7.10;;;;;;;15.03;100.00;100063.02;214684;1286;139502;-90
2023/08/28 19:20:40;;;;;;;12.10;6.80;;;;;;;15.03;100.00;100045.37;213930;1287;140649;-91
2023/08/28 19:25:42;;;;;;;11.60;7.30;;;;;;;15.03;100.00;100034.98;214436;1289;99280;-90
2023/08/28 19:30:46;;;;;;;11.10;7.50;;;;;;;15.01;100.00;100028.45;214097;1289;140780;-91
2023/08/28 19:35:48;;;;;;;10.70;7.30;;;;;;;15.01;100.00;100023.39;214602;1286;139246;-91
2023/08/28 19:40:49;;;;;;;9.50;6.50;;;;;;;15.04;100.00;100023.74;214002;1288;145217;-91
2023/08/28 19:45:49;;;;;;;8.30;5.40;;;;;;;15.03;100.00;100012.74;214714;1288;139076;-91
2023/08/28 19:51:02;;;;;;;11.20;5.80;;;;;;;14.99;100.00;100008.05;213728;1287;141147;-90
2023/08/28 19:56:04;;;;;;;9.50;6.40;;;;;;;15.01;100.00;100005.02;214890;1289;113873;-92
2023/08/28 20:01:04;;;;;;;12.80;7.20;;;;;;;15.02;100.00;100005.95;214064;1288;140785;-90
2023/08/28 20:06:05;;;;;;;15.40;8.30;;;;;;;15.03;100.00;100028.67;214598;1287;139488;-91
2023/08/28 20:11:09;;;;;;;10.70;7.20;;;;;;;15.06;100.00;100057.63;214322;1286;141385;-90
2023/08/28 20:16:10;;;;;;;11.40;7.10;;;;;;;15.08;100.00;100080.61;214222;1288;139175;-91
2023/08/28 20:21:18;;;;;;;13.70;8.90;;;;;;;15.09;100.00;100069.77;213732;1287;140124;-91
2023/08/28 20:26:19;;;;;;;13.80;8.30;;;;;;;15.07;100.00;100031.94;214626;1287;98982;-93
2023/08/28 20:31:21;;;;;;;12.00;8.40;;;;;;;15.00;100.00;100008.11;214026;1286;143278;-92
2023/08/28 20:36:21;;;;;;;12.10;8.20;;;;;;;15.03;100.00;100057.73;214266;1285;139833;-92
2023/08/28 20:41:23;;;;;;;15.80;8.70;;;;;;;15.05;100.00;100079.23;214023;1286;140122;-90
2023/08/28 20:46:24;;;;;;;12.60;8.10;;;;;;;15.07;100.00;100076.84;214995;1286;139270;-91
2023/08/28 20:51:29;;;;;;;12.40;8.40;;;;;;;15.07;100.00;100048.50;214373;1285;140055;-90
2023/08/28 20:56:30;;;;;;;11.60;7.90;;;;;;;15.06;100.00;100041.05;214502;1290;139217;-90
2023/08/28 21:01:31;;;;;;;13.90;8.30;;;;;;;15.09;100.00;100053.92;214457;1286;141032;-90
2023/08/28 21:06:34;;;;;;;13.50;9.20;;;;;;;15.10;100.00;100066.11;214625;1289;139331;-90
2023/08/28 21:11:37;;;;;;;12.60;8.10;;;;;;;15.10;100.00;100085.98;214127;1286;139827;-91
2023/08/28 21:16:37;;;;;;;13.90;8.50;;;;;;;15.11;100.00;100067.91;214572;1285;139217;-91
2023/08/28 21:21:38;;;;;;;13.60;8.70;;;;;;;15.09;100.00;100023.91;213897;1286;140155;-92
2023/08/28 21:26:39;;;;;;;13.70;9.00;;;;;;;15.07;100.00;100013.73;214758;1290;139319;-91
2023/08/28 21:31:41;;;;;;;11.70;8.00;;;;;;;15.05;100.00;100019.45;215015;1286;140395;-91
2023/08/28 21:36:41;;;;;;;12.30;8.80;;;;;;;15.02;100.00;100039.28;214527;1288;139244;-89
2023/08/28 21:41:43;;;;;;;10.10;7.40;;;;;;;14.99;100.00;100025.71;214143;1288;139836;-90
2023/08/28 21:46:44;;;;;;;11.30;7.50;;;;;;;14.96;100.00;100021.79;214374;1289;140380;-90
2023/08/28 21:51:45;;;;;;;10.30;7.00;;;;;;;14.94;100.00;100019.77;214010;1289;141172;-90
2023/08/28 21:56:45;;;;;;;12.40;6.50;;;;;;;14.93;100.00;100036.40;214467;1286;139073;-91
2023/08/28 22:01:46;;;;;;;9.50;5.90;;;;;;;14.91;100.00;100038.09;214175;1290;141239;-90
2023/08/28 22:06:47;;;;;;;10.60;6.60;;;;;;;14.85;100.00;99992.01;214525;1286;139221;-90
2023/08/28 22:11:48;;;;;;;9.80;6.50;;;;;;;14.83;100.00;99980.56;213929;1288;140368;-91
2023/08/28 22:16:49;;;;;;;12.10;6.60;;;;;;;14.81;100.00;99967.38;214365;1288;139419;-90
2023/08/28 22:21:50;;;;;;;11.10;6.40;;;;;;;14.75;100.00;99940.93;213961;1290;140513;-93
2023/08/28 22:26:55;;;;;;;10.20;6.20;;;;;;;14.70;100.00;99892.02;214274;1288;138924;-94
2023/08/28 22:31:55;;;;;;;10.90;6.60;;;;;;;14.67;100.00;99945.40;213824;1288;139707;-89
2023/08/28 22:36:57;;;;;;;12.10;6.60;;;;;;;14.68;100.00;99948.15;214495;1288;138769;-90
2023/08/28 22:41:58;;;;;;;9.40;5.90;;;;;;;14.66;100.00;99941.05;213887;1290;140264;-88
2023/08/28 22:46:59;;;;;;;10.10;6.70;;;;;;;14.64;100.00;99951.91;214369;1288;139757;-90
2023/08/28 22:51:59;;;;;;;9.40;5.50;;;;;;;14.60;100.00;99929.89;214094;1288;142409;-88
2023/08/28 22:57:00;;;;;;;9.50;5.70;;;;;;;14.60;100.00;99935.12;214203;1288;596017;-89